createdAt,value
2022-12-16T00:01:23.570Z,93.15
2022-12-16T00:03:55.455Z,96.72
2022-12-16T00:06:24.266Z,101.22
2022-12-16T00:08:52.004Z,99.03
2022-12-16T00:11:19.950Z,92.88
2022-12-16T00:13:47.394Z,101.32
2022-12-16T00:16:16.673Z,91.88
2022-12-16T00:18:44.894Z,98.80
2022-12-16T00:21:12.378Z,86.03
2022-12-16T00:23:41.456Z,99.15
2022-12-16T00:26:08.811Z,99.47
2022-12-16T00:28:35.551Z,100.35
2022-12-16T00:31:02.300Z,95.22
2022-12-16T00:33:29.001Z,95.05
2022-12-16T00:35:56.423Z,100.68
2022-12-16T00:38:25.300Z,106.93
2022-12-16T00:40:52.241Z,106.13
2022-12-16T00:43:20.221Z,99.22
2022-12-16T00:45:47.846Z,97.55
2022-12-16T00:48:14.921Z,111.85
2022-12-16T00:50:41.631Z,104.97
2022-12-16T00:53:08.583Z,102.05
2022-12-16T00:55:35.217Z,99.03
2022-12-16T00:58:01.814Z,96.53
2022-12-16T01:00:28.385Z,104.35
2022-12-16T01:05:15.020Z,111.57
2022-12-16T01:07:42.003Z,115.68
2022-12-16T01:10:10.490Z,111.07
2022-12-16T01:12:37.867Z,101.60
2022-12-16T01:15:08.015Z,115.72
2022-12-16T01:17:35.300Z,101.57
2022-12-16T01:20:02.374Z,108.78
2022-12-16T01:22:32.058Z,114.00
2022-12-16T01:24:59.698Z,115.55
2022-12-16T01:27:27.224Z,113.65
2022-12-16T01:29:53.851Z,117.68
2022-12-16T01:32:22.362Z,127.55
2022-12-16T01:34:55.372Z,121.18
2022-12-16T01:37:23.748Z,109.93
2022-12-16T01:39:50.459Z,107.85
2022-12-16T01:42:20.220Z,99.10
2022-12-16T01:44:48.618Z,113.15
2022-12-16T01:47:18.602Z,119.47
2022-12-16T01:49:51.323Z,117.13
2022-12-16T01:52:26.079Z,115.35
2022-12-16T01:55:07.688Z,112.57
2022-12-16T01:57:40.911Z,94.00
2022-12-16T02:00:08.394Z,110.22
2022-12-16T02:02:41.968Z,108.60
2022-12-16T02:05:20.928Z,110.78
2022-12-16T02:08:06.018Z,111.78
2022-12-16T02:10:35.362Z,92.45
2022-12-16T02:13:14.348Z,105.50
2022-12-16T02:15:59.135Z,98.22
2022-12-16T02:18:25.629Z,90.18
2022-12-16T02:21:15.213Z,112.18
2022-12-16T02:23:54.018Z,90.72
2022-12-16T02:26:58.695Z,102.10
2022-12-16T02:29:34.091Z,100.80
2022-12-16T02:32:19.291Z,96.88
2022-12-16T02:34:59.027Z,102.50
2022-12-16T02:37:31.319Z,110.90
2022-12-16T02:40:04.042Z,114.93
2022-12-16T02:42:35.863Z,104.30
2022-12-16T02:45:14.918Z,94.75
2022-12-16T02:47:41.490Z,101.78
2022-12-16T02:50:21.614Z,110.72
2022-12-16T02:52:50.352Z,99.03
2022-12-16T02:55:17.005Z,96.47
2022-12-16T02:58:02.080Z,105.47
2022-12-16T03:00:39.979Z,95.45
2022-12-16T03:03:35.743Z,113.13
2022-12-16T03:06:04.684Z,107.57
2022-12-16T03:08:36.776Z,106.60
2022-12-16T03:11:05.855Z,106.43
2022-12-16T03:13:49.918Z,105.75
2022-12-16T03:16:20.588Z,101.60
2022-12-16T03:18:52.907Z,93.55
2022-12-16T03:21:25.779Z,97.32
2022-12-16T03:24:01.638Z,98.47
2022-12-16T03:26:34.480Z,91.35
2022-12-16T03:29:11.299Z,89.25
2022-12-16T03:32:00.653Z,100.93
2022-12-16T03:34:39.171Z,93.28
2022-12-16T03:37:09.496Z,84.45
2022-12-16T03:39:44.574Z,82.50
2022-12-16T03:42:13.459Z,81.75
2022-12-16T03:44:40.050Z,88.70
2022-12-16T03:47:06.962Z,87.38
2022-12-16T03:49:33.571Z,88.82
2022-12-16T03:52:00.184Z,86.60
2022-12-16T03:54:26.847Z,86.63
2022-12-16T03:56:54.234Z,80.15
2022-12-16T03:59:20.787Z,75.95
2022-12-16T04:01:47.681Z,79.95
2022-12-16T04:04:14.234Z,78.85
2022-12-16T04:06:40.826Z,72.78
2022-12-16T04:11:49.926Z,73.03
2022-12-16T04:14:35.245Z,68.20
2022-12-16T04:17:20.850Z,73.05
2022-12-16T04:20:06.441Z,71.25
2022-12-16T04:22:58.652Z,75.28
2022-12-16T04:25:30.682Z,64.18
2022-12-16T04:27:58.548Z,64.57
2022-12-16T04:30:27.618Z,72.88
2022-12-16T04:33:17.898Z,72.13
2022-12-16T04:36:03.707Z,62.28
2022-12-16T04:38:48.903Z,69.55
2022-12-16T04:41:34.479Z,78.55
2022-12-16T04:44:19.698Z,66.18
2022-12-16T04:47:05.118Z,70.57
2022-12-16T04:49:50.491Z,72.22
2022-12-16T04:52:36.651Z,72.32
2022-12-16T04:55:21.968Z,70.40
2022-12-16T04:58:09.989Z,64.70
2022-12-16T05:00:55.019Z,68.28
2022-12-16T05:03:41.343Z,67.03
2022-12-16T05:06:26.578Z,72.55
2022-12-16T05:09:11.620Z,80.82
2022-12-16T05:11:56.822Z,73.45
2022-12-16T05:14:42.106Z,64.45
2022-12-16T05:17:27.330Z,68.75
2022-12-16T05:20:12.758Z,68.55
2022-12-16T05:22:57.819Z,80.38
2022-12-16T05:25:42.721Z,76.00
2022-12-16T05:28:28.022Z,70.80
2022-12-16T05:31:13.135Z,67.97
2022-12-16T05:33:58.447Z,72.28
2022-12-16T05:36:43.786Z,67.85
2022-12-16T05:39:28.959Z,57.42
2022-12-16T05:42:14.692Z,67.43
2022-12-16T05:44:59.923Z,70.78
2022-12-16T05:47:45.690Z,67.65
2022-12-16T05:50:31.067Z,66.90
2022-12-16T05:53:27.722Z,61.75
2022-12-16T05:56:13.075Z,74.50
2022-12-16T05:58:57.947Z,62.47
2022-12-16T06:01:43.068Z,74.93
2022-12-16T06:04:28.311Z,65.80
2022-12-16T06:07:13.579Z,70.15
2022-12-16T06:09:58.491Z,72.68
2022-12-16T06:12:43.670Z,58.53
2022-12-16T06:15:29.479Z,62.42
2022-12-16T06:18:14.666Z,66.80
2022-12-16T06:21:00.227Z,56.65
2022-12-16T06:23:45.379Z,64.38
2022-12-16T06:26:31.054Z,62.40
2022-12-16T06:29:16.101Z,71.93
2022-12-16T06:32:01.257Z,55.38
2022-12-16T06:34:46.805Z,66.22
2022-12-16T06:37:32.077Z,57.30
2022-12-16T06:40:18.409Z,53.63
2022-12-16T06:43:03.610Z,51.10
2022-12-16T06:45:59.553Z,64.88
2022-12-16T06:48:44.622Z,49.38
2022-12-16T06:51:29.924Z,58.88
2022-12-16T06:54:14.820Z,55.45
2022-12-16T06:57:00.199Z,45.28
2022-12-16T06:59:45.174Z,45.95
2022-12-16T07:02:31.060Z,48.25
2022-12-16T07:05:16.292Z,44.95
2022-12-16T07:08:10.617Z,51.45
2022-12-16T07:11:02.318Z,45.15
2022-12-16T07:13:54.366Z,41.13
2022-12-16T07:16:39.397Z,42.95
2022-12-16T07:19:24.654Z,45.63
2022-12-16T07:22:09.903Z,51.75
2022-12-16T07:24:55.075Z,45.08
2022-12-16T07:27:40.403Z,42.33
2022-12-16T07:30:27.477Z,70.85
2022-12-16T07:33:12.522Z,62.15
2022-12-16T07:36:01.461Z,49.55
2022-12-16T07:38:46.684Z,50.08
2022-12-16T07:41:31.691Z,45.92
2022-12-16T07:44:16.868Z,54.13
2022-12-16T07:47:02.121Z,44.25
2022-12-16T07:49:47.407Z,50.33
2022-12-16T07:52:32.456Z,48.50
2022-12-16T07:55:17.859Z,49.08
2022-12-16T07:58:08.656Z,54.03
2022-12-16T08:00:53.846Z,53.38
2022-12-16T08:03:41.775Z,51.20
2022-12-16T08:06:27.748Z,55.03
2022-12-16T08:09:13.407Z,62.42
2022-12-16T08:11:58.781Z,59.42
2022-12-16T08:14:43.956Z,49.95
2022-12-16T08:17:28.930Z,47.42
2022-12-16T08:20:14.249Z,54.08
2022-12-16T08:22:59.838Z,48.40
2022-12-16T08:25:45.063Z,54.20
2022-12-16T08:28:30.179Z,49.30
2022-12-16T08:31:15.208Z,55.65
2022-12-16T08:34:00.474Z,48.00
2022-12-16T08:36:45.686Z,60.47
2022-12-16T08:39:35.199Z,54.28
2022-12-16T08:42:20.095Z,59.22
2022-12-16T08:45:05.424Z,50.55
2022-12-16T08:47:50.648Z,50.83
2022-12-16T08:50:35.965Z,49.60
2022-12-16T08:53:21.177Z,47.45
2022-12-16T08:56:06.690Z,45.03
2022-12-16T08:58:51.854Z,52.08
2022-12-16T09:01:37.865Z,46.58
2022-12-16T09:04:23.485Z,46.15
2022-12-16T09:07:08.712Z,58.17
2022-12-16T09:09:54.138Z,48.67
2022-12-16T09:12:39.605Z,45.15
2022-12-16T09:17:44.414Z,43.88
2022-12-16T09:20:29.993Z,51.03
2022-12-16T09:23:15.360Z,48.95
2022-12-16T09:26:00.612Z,99.50
2022-12-16T09:28:47.507Z,96.60
2022-12-16T09:31:32.421Z,131.30
2022-12-16T09:34:17.563Z,71.43
2022-12-16T09:37:02.960Z,136.90
2022-12-16T09:39:47.881Z,97.85
2022-12-16T09:43:01.261Z,67.82
2022-12-16T09:46:04.568Z,64.40
2022-12-16T09:49:15.611Z,70.13
2022-12-16T09:52:02.551Z,108.63
2022-12-16T09:54:52.391Z,65.95
2022-12-16T09:57:39.225Z,54.15
2022-12-16T10:00:36.547Z,53.78
2022-12-16T10:03:31.650Z,52.63
2022-12-16T10:06:36.004Z,51.95
2022-12-16T10:09:26.859Z,50.17
2022-12-16T10:12:17.836Z,52.22
2022-12-16T10:15:13.410Z,51.92
2022-12-16T10:18:02.680Z,50.00
2022-12-16T10:20:58.550Z,46.15
2022-12-16T10:24:09.692Z,49.50
2022-12-16T10:27:10.141Z,50.72
2022-12-16T10:30:01.860Z,41.03
2022-12-16T10:33:05.150Z,43.40
2022-12-16T10:36:05.725Z,46.88
2022-12-16T10:39:02.177Z,47.30
2022-12-16T10:41:53.196Z,49.03
2022-12-16T10:44:41.739Z,48.40
2022-12-16T10:47:29.274Z,43.92
2022-12-16T10:50:15.727Z,44.20
2022-12-16T10:53:37.868Z,41.47
2022-12-16T10:56:51.403Z,48.40
2022-12-16T10:59:36.686Z,45.35
2022-12-16T11:02:35.345Z,40.10
2022-12-16T11:05:20.967Z,40.97
2022-12-16T11:08:05.882Z,41.50
2022-12-16T11:10:56.262Z,41.47
2022-12-16T11:13:55.150Z,43.42
2022-12-16T11:16:45.482Z,51.15
2022-12-16T11:19:39.978Z,41.95
2022-12-16T11:22:37.848Z,46.30
2022-12-16T11:25:39.382Z,53.72
2022-12-16T11:28:31.651Z,50.00
2022-12-16T11:31:20.460Z,45.83
2022-12-16T11:34:07.586Z,46.63
2022-12-16T11:36:56.258Z,44.70
2022-12-16T11:39:45.061Z,42.70
2022-12-16T11:42:46.040Z,38.45
2022-12-16T11:45:42.207Z,47.63
2022-12-16T11:48:32.724Z,49.15
2022-12-16T11:51:20.391Z,49.97
2022-12-16T11:54:10.815Z,44.45
2022-12-16T11:57:00.116Z,48.08
2022-12-16T11:59:58.111Z,48.72
2022-12-16T12:04:59.659Z,57.50
2022-12-16T12:08:03.734Z,55.50
2022-12-16T12:11:04.108Z,56.92
2022-12-16T12:13:52.497Z,54.55
2022-12-16T12:17:10.258Z,56.95
2022-12-16T12:20:17.524Z,60.25
2022-12-16T12:23:02.633Z,66.45
2022-12-16T12:26:23.517Z,52.85
2022-12-16T12:29:26.889Z,63.75
2022-12-16T12:32:36.764Z,62.35
2022-12-16T12:35:53.186Z,62.58
2022-12-16T12:38:56.158Z,54.42
2022-12-16T12:42:07.892Z,56.33
2022-12-16T12:45:04.994Z,70.68
2022-12-16T12:47:54.746Z,61.33
2022-12-16T12:50:55.475Z,52.65
2022-12-16T12:53:53.840Z,53.80
2022-12-16T12:56:42.503Z,57.63
2022-12-16T12:59:38.039Z,66.85
2022-12-16T13:02:30.531Z,61.03
2022-12-16T13:05:21.115Z,69.88
2022-12-16T13:08:09.791Z,69.93
2022-12-16T13:10:56.248Z,73.43
2022-12-16T13:13:49.066Z,65.07
2022-12-16T13:19:48.015Z,73.22
2022-12-16T13:22:54.503Z,68.15
2022-12-16T13:25:55.398Z,83.93
2022-12-16T13:28:49.328Z,81.70
2022-12-16T13:31:35.536Z,85.22
2022-12-16T13:34:48.692Z,72.10
2022-12-16T13:37:42.438Z,88.25
2022-12-16T13:40:38.332Z,89.85
2022-12-16T13:43:24.485Z,87.82
2022-12-16T13:46:15.981Z,94.97
2022-12-16T13:49:01.871Z,91.97
2022-12-16T13:51:55.987Z,96.45
2022-12-16T13:54:48.516Z,93.68
2022-12-16T13:57:37.105Z,80.03
2022-12-16T14:00:24.244Z,97.53
2022-12-16T14:03:11.604Z,96.60
2022-12-16T14:06:02.028Z,97.30
2022-12-16T14:08:54.624Z,93.80
2022-12-16T14:15:00.269Z,88.30
2022-12-16T14:18:31.280Z,91.30
2022-12-16T14:21:21.076Z,114.60
2022-12-16T14:24:12.460Z,90.43
2022-12-16T14:26:58.760Z,88.60
2022-12-16T14:29:49.065Z,94.28
2022-12-16T14:32:52.374Z,102.20
2022-12-16T14:35:37.601Z,100.38
2022-12-16T14:39:05.648Z,98.18
2022-12-16T14:41:51.003Z,99.28
2022-12-16T14:44:39.373Z,100.88
2022-12-16T14:47:24.878Z,91.75
2022-12-16T14:50:13.058Z,91.45
2022-12-16T14:52:58.763Z,88.75
2022-12-16T14:55:50.623Z,99.93
2022-12-16T14:58:38.589Z,122.72
2022-12-16T15:01:39.105Z,90.65
2022-12-16T15:04:32.365Z,95.80
2022-12-16T15:07:17.904Z,80.45
2022-12-16T15:10:07.039Z,90.32
2022-12-16T15:13:02.169Z,88.75
2022-12-16T15:16:07.523Z,78.80
2022-12-16T15:18:57.620Z,83.13
2022-12-16T15:21:42.675Z,82.82
2022-12-16T15:24:37.080Z,90.93
2022-12-16T15:27:33.727Z,86.30
2022-12-16T15:30:19.173Z,93.65
2022-12-16T15:33:11.411Z,92.75
2022-12-16T15:35:57.540Z,100.10
2022-12-16T15:38:51.790Z,85.38
2022-12-16T15:41:49.501Z,86.47
2022-12-16T15:44:41.267Z,85.95
2022-12-16T15:47:50.498Z,90.73
2022-12-16T15:50:39.924Z,108.90
2022-12-16T15:53:47.217Z,100.43
2022-12-16T15:56:41.476Z,102.10
2022-12-16T15:59:56.705Z,122.25
2022-12-16T16:02:48.032Z,126.57
2022-12-16T16:05:39.418Z,126.45
2022-12-16T16:08:24.806Z,108.97
2022-12-16T16:11:10.547Z,99.85
2022-12-16T16:13:59.347Z,104.53
2022-12-16T16:16:49.623Z,106.72
2022-12-16T16:19:45.365Z,123.00
2022-12-16T16:22:35.414Z,124.68
2022-12-16T16:25:20.574Z,125.90
2022-12-16T16:28:06.263Z,134.02
2022-12-16T16:30:51.444Z,134.13
2022-12-16T16:33:37.086Z,123.45
2022-12-16T16:36:33.233Z,113.32
2022-12-16T16:39:19.316Z,116.78
2022-12-16T16:42:04.347Z,114.30
2022-12-16T16:44:49.712Z,119.70
2022-12-16T16:50:06.557Z,118.57
2022-12-16T16:52:51.618Z,126.95
2022-12-16T16:55:39.307Z,131.65
2022-12-16T16:58:30.569Z,120.78
2022-12-16T17:01:15.904Z,123.22
2022-12-16T17:04:01.746Z,117.32
2022-12-16T17:06:46.815Z,124.35
2022-12-16T17:09:32.198Z,134.02
2022-12-16T17:12:18.584Z,130.38
2022-12-16T17:15:03.855Z,124.25
2022-12-16T17:17:48.974Z,132.73
2022-12-16T17:20:35.442Z,184.18
2022-12-16T17:23:20.718Z,191.10
2022-12-16T17:26:05.899Z,194.95
2022-12-16T17:28:51.127Z,139.73
2022-12-16T17:31:36.551Z,165.75
2022-12-16T17:34:21.776Z,149.73
2022-12-16T17:37:10.187Z,147.90
2022-12-16T17:39:55.381Z,162.85
2022-12-16T17:42:46.311Z,156.50
2022-12-16T17:45:32.224Z,152.07
2022-12-16T17:48:17.300Z,156.90
2022-12-16T17:53:19.314Z,149.80
2022-12-16T17:56:04.410Z,156.32
2022-12-16T17:59:05.966Z,160.07
2022-12-16T18:01:51.124Z,153.93
2022-12-16T18:04:36.476Z,139.05
2022-12-16T18:07:21.560Z,147.75
2022-12-16T18:10:06.437Z,163.35
2022-12-16T18:12:52.074Z,160.93
2022-12-16T18:15:37.631Z,137.75
2022-12-16T18:18:24.654Z,143.98
2022-12-16T18:21:10.184Z,136.65
2022-12-16T18:23:55.560Z,152.45
2022-12-16T18:26:43.568Z,148.50
2022-12-16T18:29:30.057Z,163.65
2022-12-16T18:32:15.339Z,163.00
2022-12-16T18:35:00.960Z,171.65
2022-12-16T18:37:46.275Z,159.40
2022-12-16T18:40:31.506Z,165.05
2022-12-16T18:43:17.924Z,159.40
2022-12-16T18:46:10.568Z,162.70
2022-12-16T18:51:41.446Z,133.45
2022-12-16T18:54:26.637Z,143.43
2022-12-16T18:57:11.749Z,159.50
2022-12-16T18:59:57.036Z,127.50
2022-12-16T19:02:42.659Z,145.98
2022-12-16T19:05:27.898Z,139.05
2022-12-16T19:08:14.593Z,130.10
2022-12-16T19:10:59.746Z,123.47
2022-12-16T19:13:44.968Z,122.88
2022-12-16T19:16:30.264Z,131.20
2022-12-16T19:19:20.180Z,144.15
2022-12-16T19:22:06.464Z,154.15
2022-12-16T19:24:51.884Z,157.95
2022-12-16T19:27:37.368Z,134.77
2022-12-16T19:30:23.205Z,118.88
2022-12-16T19:33:08.401Z,126.22
2022-12-16T19:35:54.276Z,82.82
2022-12-16T19:38:42.193Z,120.88
2022-12-16T19:41:35.195Z,118.00
2022-12-16T19:44:23.791Z,96.88
2022-12-16T19:47:10.972Z,113.38
2022-12-16T19:49:56.339Z,94.75
2022-12-16T19:52:42.648Z,117.70
2022-12-16T19:55:30.033Z,106.00
2022-12-16T19:58:15.375Z,115.32
2022-12-16T20:01:00.676Z,117.50
2022-12-16T20:03:46.385Z,114.47
2022-12-16T20:06:33.878Z,126.68
2022-12-16T20:09:19.277Z,132.55
2022-12-16T20:12:04.884Z,128.43
2022-12-16T20:14:56.593Z,92.10
2022-12-16T20:17:41.930Z,119.15
2022-12-16T20:20:31.017Z,116.22
2022-12-16T20:23:16.674Z,129.35
2022-12-16T20:26:04.697Z,114.95
2022-12-16T20:28:53.083Z,113.05
2022-12-16T20:31:41.795Z,126.35
2022-12-16T20:34:39.094Z,110.32
2022-12-16T20:37:27.643Z,102.97
2022-12-16T20:40:13.038Z,112.40
2022-12-16T20:43:01.778Z,115.13
2022-12-16T20:45:47.207Z,116.90
2022-12-16T20:48:33.847Z,104.80
2022-12-16T20:51:26.488Z,107.50
2022-12-16T20:54:12.864Z,102.10
2022-12-16T20:56:58.606Z,119.78
2022-12-16T20:59:46.650Z,100.40
2022-12-16T21:02:39.664Z,97.03
2022-12-16T21:05:32.038Z,113.03
2022-12-16T21:08:17.557Z,107.60
2022-12-16T21:11:02.858Z,119.50
2022-12-16T21:13:49.376Z,114.68
2022-12-16T21:16:34.604Z,111.47
2022-12-16T21:19:19.804Z,119.78
2022-12-16T21:22:04.955Z,109.43
2022-12-16T21:24:50.000Z,110.95
2022-12-16T21:27:35.278Z,115.43
2022-12-16T21:30:20.929Z,121.88
2022-12-16T21:33:08.813Z,135.75
2022-12-16T21:35:56.083Z,134.02
2022-12-16T21:38:42.420Z,131.95
2022-12-16T21:41:28.057Z,131.63
2022-12-16T21:44:13.231Z,133.43
2022-12-16T21:46:58.449Z,123.10
2022-12-16T21:49:46.051Z,122.90
2022-12-16T21:52:31.079Z,117.05
2022-12-16T21:55:16.312Z,109.65
2022-12-16T21:58:02.115Z,123.30
2022-12-16T22:00:47.116Z,123.30
2022-12-16T22:03:32.440Z,117.82
2022-12-16T22:06:18.259Z,126.03
2022-12-16T22:09:03.408Z,128.50
2022-12-16T22:11:49.569Z,110.28
2022-12-16T22:14:35.008Z,146.15
2022-12-16T22:17:20.426Z,125.93
2022-12-16T22:20:05.848Z,112.85
2022-12-16T22:22:51.202Z,123.15
2022-12-16T22:25:37.084Z,141.73
2022-12-16T22:28:22.067Z,119.38
2022-12-16T22:31:15.979Z,154.40
2022-12-16T22:34:02.353Z,142.82
2022-12-16T22:36:49.143Z,153.05
2022-12-16T22:39:34.407Z,129.20
2022-12-16T22:42:19.748Z,134.13
2022-12-16T22:45:04.974Z,142.25
2022-12-16T22:47:50.756Z,157.02
2022-12-16T22:50:50.831Z,144.15
2022-12-16T22:53:36.774Z,160.25
2022-12-16T22:56:35.665Z,134.32
2022-12-16T22:59:20.695Z,152.40
2022-12-16T23:02:06.002Z,149.48
2022-12-16T23:04:51.450Z,153.77
2022-12-16T23:07:37.219Z,142.30
2022-12-16T23:10:22.868Z,159.75
2022-12-16T23:13:07.848Z,125.50
2022-12-16T23:15:56.575Z,139.90
2022-12-16T23:18:41.940Z,170.60
2022-12-16T23:21:33.875Z,158.77
2022-12-16T23:24:19.162Z,161.40
2022-12-16T23:27:04.327Z,153.05
2022-12-16T23:29:49.434Z,143.25
2022-12-16T23:35:25.167Z,165.48
2022-12-16T23:40:23.584Z,158.98
2022-12-16T23:43:11.738Z,157.82
2022-12-16T23:45:57.105Z,137.88
2022-12-16T23:48:42.227Z,157.35
2022-12-16T23:51:27.486Z,154.70
2022-12-16T23:54:13.006Z,174.45
2022-12-16T23:56:58.200Z,151.10
2022-12-16T23:59:43.436Z,156.57
